createdAt,value
2019-05-17T06:53:36.509Z,5360.00
2019-05-17T06:54:36.470Z,5464.00
2019-05-17T06:55:36.449Z,5276.00
2019-05-17T06:56:36.427Z,4916.00
2019-05-17T06:57:36.405Z,4828.00
2019-05-17T06:58:36.399Z,4772.00
2019-05-17T06:59:36.368Z,4560.00
2019-05-17T07:00:36.343Z,4512.00
2019-05-17T07:01:36.322Z,4652.00
2019-05-17T07:02:36.303Z,4904.00
2019-05-17T07:03:36.298Z,4996.00
2019-05-17T07:04:36.259Z,4864.00
2019-05-17T07:05:36.239Z,5004.00
2019-05-17T07:06:36.224Z,4812.00
2019-05-17T07:07:36.199Z,4900.00
2019-05-17T07:08:36.182Z,4904.00
2019-05-17T07:09:36.174Z,4464.00
2019-05-17T07:10:36.146Z,4228.00
2019-05-17T07:11:36.127Z,4168.00
2019-05-17T07:12:36.101Z,3932.00
2019-05-17T07:13:36.085Z,3936.00
2019-05-17T07:14:36.087Z,3920.00
2019-05-17T07:15:46.896Z,3940.00
2019-05-17T07:16:36.023Z,3864.00
2019-05-17T07:17:36.009Z,3660.00
2019-05-17T07:18:35.987Z,3744.00
2019-05-17T07:19:35.970Z,3684.00
2019-05-17T07:20:35.968Z,3704.00
2019-05-17T07:58:21.324Z,7572.00
2019-05-17T07:59:20.006Z,7824.00
2019-05-17T08:00:20.212Z,7892.00
2019-05-17T08:01:20.511Z,7992.00
2019-05-17T08:02:19.907Z,7792.00
2019-05-17T08:03:20.957Z,7504.00
2019-05-17T08:04:20.474Z,7312.00
2019-05-17T08:05:21.464Z,7024.00
2019-05-17T08:06:19.905Z,7108.00
2019-05-17T08:07:19.715Z,6720.00
2019-05-17T08:08:20.859Z,7036.00
2019-05-17T08:09:20.453Z,7760.00
2019-05-17T08:10:20.358Z,7792.00
2019-05-17T08:11:19.756Z,8664.00
2019-05-17T08:12:19.984Z,9136.00
2019-05-17T08:13:27.421Z,9124.00
2019-05-17T08:14:29.281Z,9136.00
2019-05-17T08:15:19.767Z,8704.00
2019-05-17T08:16:19.631Z,8112.00
2019-05-17T08:17:19.857Z,8668.00
2019-05-17T08:18:20.381Z,8724.00
2019-05-17T08:30:51.675Z,9460.00
2019-05-17T08:31:51.652Z,9152.00
2019-05-17T08:32:51.619Z,8856.00
2019-05-17T08:33:51.595Z,8384.00
2019-05-17T08:34:51.956Z,9352.00
2019-05-17T08:35:51.553Z,10188.00
2019-05-17T08:36:51.557Z,11364.00
2019-05-17T08:37:51.517Z,11856.00
2019-05-17T08:38:51.494Z,11664.00
2019-05-17T08:39:51.479Z,11772.00
2019-05-17T08:40:51.464Z,12468.00
2019-05-17T08:41:51.453Z,12584.00
2019-05-17T08:42:51.418Z,12292.00
2019-05-17T08:43:51.637Z,12760.00
2019-05-17T08:44:51.379Z,12576.00
2019-05-17T08:45:51.374Z,12540.00
2019-05-17T08:46:51.360Z,13024.00
2019-05-17T08:47:51.324Z,12336.00
2019-05-17T08:48:51.310Z,12168.00
2019-05-17T08:49:51.288Z,12800.00
2019-05-17T08:50:51.271Z,11932.00
2019-05-17T08:51:51.287Z,11524.00
2019-05-17T08:52:51.231Z,11776.00
2019-05-17T08:53:51.224Z,11452.00
2019-05-17T08:54:51.198Z,12324.00
2019-05-17T08:55:51.179Z,12580.00
2019-05-17T08:56:51.158Z,12568.00
2019-05-17T08:57:51.159Z,12260.00
2019-05-17T08:58:51.123Z,13372.00
2019-05-17T08:59:51.106Z,13080.00
2019-05-17T09:00:51.087Z,13208.00
2019-05-17T09:01:51.068Z,13328.00
2019-05-17T09:02:51.073Z,13096.00
2019-05-17T09:03:51.034Z,14840.00
2019-05-17T09:04:51.015Z,15976.00
2019-05-17T09:05:52.567Z,15768.00
2019-05-17T09:06:50.980Z,14432.00
2019-05-17T09:07:50.980Z,16060.00
2019-05-17T09:08:50.953Z,17888.00
2019-05-17T09:09:50.928Z,17280.00
2019-05-17T09:10:50.914Z,15316.00
2019-05-17T09:11:50.894Z,17696.00
2019-05-17T09:12:50.890Z,20160.00
2019-05-17T09:13:57.556Z,20224.00
2019-05-17T09:14:50.839Z,18912.00
2019-05-17T09:15:50.823Z,19008.00
2019-05-17T09:16:50.810Z,19904.00
2019-05-17T09:17:50.791Z,20032.00
2019-05-17T09:18:50.787Z,19008.00
2019-05-17T09:19:54.113Z,18720.00
2019-05-17T09:20:50.735Z,17824.00
2019-05-17T09:21:50.720Z,15116.00
2019-05-17T09:22:51.154Z,17376.00
2019-05-17T09:23:50.703Z,16960.00
2019-05-17T09:24:50.675Z,17408.00
2019-05-17T09:25:50.653Z,17088.00
2019-05-17T09:26:50.634Z,17312.00
2019-05-17T09:27:50.621Z,17152.00
2019-05-17T09:28:50.613Z,17632.00
2019-05-17T09:29:50.582Z,18048.00
2019-05-17T09:30:50.879Z,18880.00
2019-05-17T09:31:50.568Z,20608.00
2019-05-17T09:32:50.533Z,21216.00
2019-05-17T09:33:50.531Z,21632.00
2019-05-17T09:34:50.508Z,21056.00
2019-05-17T09:35:50.484Z,20640.00
2019-05-17T09:36:50.466Z,20224.00
2019-05-17T09:37:50.447Z,20192.00
2019-05-17T09:38:50.468Z,20192.00
2019-05-17T09:39:50.416Z,20352.00
2019-05-17T09:40:50.661Z,20832.00
2019-05-17T09:41:50.383Z,21248.00
2019-05-17T09:42:50.367Z,21888.00
2019-05-17T09:43:50.351Z,23168.00
2019-05-17T09:44:50.343Z,23104.00
2019-05-17T09:45:50.936Z,23648.00
2019-05-17T09:46:50.503Z,21600.00
2019-05-17T09:47:50.673Z,23168.00
2019-05-17T09:48:50.671Z,23168.00
2019-05-17T09:49:50.299Z,22880.00
2019-05-17T09:50:50.617Z,22080.00
2019-05-17T09:51:50.216Z,19744.00
2019-05-17T09:52:50.201Z,18176.00
2019-05-17T09:53:50.187Z,21024.00
2019-05-17T09:54:50.568Z,19776.00
2019-05-17T09:55:50.157Z,20064.00
2019-05-17T09:56:50.139Z,20480.00
2019-05-17T09:57:50.119Z,21792.00
2019-05-17T09:58:50.103Z,21856.00
2019-05-17T09:59:50.089Z,21952.00
2019-05-17T10:00:50.086Z,23424.00
2019-05-17T10:01:50.056Z,22944.00
2019-05-17T10:02:50.749Z,21440.00
2019-05-17T10:03:50.545Z,21120.00
2019-05-17T10:04:50.391Z,20096.00
2019-05-17T10:05:50.027Z,20064.00
2019-05-17T10:06:51.353Z,18048.00
2019-05-17T10:07:50.753Z,17248.00
2019-05-17T10:08:49.948Z,16564.00
2019-05-17T10:09:50.242Z,14224.00
2019-05-17T10:11:04.196Z,12772.00
2019-05-17T10:11:49.909Z,11604.00
2019-05-17T10:12:49.984Z,12880.00
2019-05-17T10:13:50.044Z,13260.00
2019-05-17T10:14:49.985Z,13732.00
2019-05-17T10:15:50.164Z,14248.00
2019-05-17T10:16:49.831Z,15676.00
2019-05-17T10:17:49.797Z,15892.00
2019-05-17T10:18:49.793Z,15752.00
2019-05-17T10:19:49.765Z,16800.00
2019-05-17T10:20:50.617Z,15816.00
2019-05-17T10:21:49.756Z,15332.00
2019-05-17T10:22:50.435Z,17376.00
2019-05-17T10:23:49.942Z,18144.00
2019-05-17T10:24:49.685Z,18592.00
2019-05-17T10:25:49.670Z,19456.00
2019-05-17T10:26:49.958Z,21120.00
2019-05-17T10:27:49.907Z,19520.00
2019-05-17T10:28:51.664Z,18880.00
2019-05-17T10:29:50.142Z,19456.00
2019-05-17T10:30:52.385Z,20608.00
2019-05-17T10:31:50.468Z,19008.00
2019-05-17T10:32:50.611Z,15468.00
2019-05-17T10:33:49.600Z,16304.00
2019-05-17T10:34:49.610Z,18432.00
2019-05-17T10:35:49.743Z,16448.00
2019-05-17T10:36:50.639Z,14548.00
2019-05-17T10:37:50.514Z,14012.00
2019-05-17T10:38:50.222Z,12412.00
2019-05-17T10:39:50.252Z,11500.00
2019-05-17T10:40:50.112Z,10664.00
2019-05-17T10:41:50.055Z,10876.00
2019-05-17T10:42:49.989Z,12488.00
2019-05-17T10:43:50.123Z,14416.00
2019-05-17T10:44:51.433Z,14268.00
2019-05-17T10:45:49.349Z,11820.00
2019-05-17T10:46:49.362Z,11000.00
2019-05-17T10:47:50.294Z,11512.00
2019-05-17T10:48:50.059Z,11876.00
2019-05-17T10:49:49.699Z,10824.00
2019-05-17T10:50:49.712Z,11616.00
2019-05-17T10:51:49.497Z,13784.00
2019-05-17T10:52:49.239Z,15312.00
2019-05-17T10:53:51.347Z,15196.00
2019-05-17T10:54:49.204Z,15644.00
2019-05-17T10:55:49.770Z,14300.00
2019-05-17T10:56:50.231Z,13240.00
2019-05-17T10:57:50.000Z,12744.00
2019-05-17T10:58:49.394Z,12920.00
2019-05-17T10:59:49.887Z,12908.00
2019-05-17T11:00:50.113Z,11688.00
2019-05-17T11:01:50.141Z,12896.00
2019-05-17T11:02:50.275Z,15236.00
2019-05-17T11:03:50.315Z,17056.00
2019-05-17T11:04:50.550Z,18080.00
2019-05-17T11:05:50.214Z,17888.00
2019-05-17T11:06:50.056Z,16632.00
2019-05-17T11:07:50.499Z,15544.00
2019-05-17T11:08:50.145Z,13340.00
2019-05-17T11:09:50.943Z,13540.00
2019-05-17T11:10:50.099Z,13260.00
2019-05-17T11:11:48.933Z,12992.00
2019-05-17T11:12:48.930Z,12288.00
2019-05-17T11:13:48.897Z,11172.00
2019-05-17T11:14:52.604Z,10244.00
2019-05-17T11:15:48.867Z,10384.00
2019-05-17T11:16:48.854Z,10868.00
2019-05-17T11:17:48.853Z,10456.00
2019-05-17T11:18:48.818Z,10888.00
2019-05-17T11:19:48.812Z,11992.00
2019-05-17T11:20:48.786Z,12304.00
2019-05-17T11:21:48.771Z,13064.00
2019-05-17T11:22:48.757Z,14432.00
2019-05-17T11:23:48.756Z,14684.00
2019-05-17T11:24:48.724Z,14272.00
2019-05-17T11:25:48.713Z,14568.00
2019-05-17T11:26:48.691Z,14292.00
2019-05-17T11:27:48.675Z,14424.00
2019-05-17T11:28:48.679Z,13996.00
2019-05-17T11:29:48.645Z,14284.00
2019-05-17T11:30:48.628Z,14712.00
2019-05-17T11:31:48.611Z,14576.00
2019-05-17T11:32:48.595Z,14492.00
2019-05-17T11:33:48.593Z,14612.00
2019-05-17T11:34:48.565Z,13860.00
2019-05-17T11:35:48.547Z,13864.00
2019-05-17T11:36:48.531Z,14020.00
2019-05-17T11:37:48.528Z,14652.00
2019-05-17T11:38:48.539Z,15292.00
2019-05-17T11:39:48.487Z,15024.00
2019-05-17T11:40:50.002Z,15012.00
2019-05-17T11:41:48.449Z,14916.00
2019-05-17T11:42:48.435Z,15324.00
2019-05-17T11:43:48.423Z,15464.00
2019-05-17T11:44:48.416Z,15756.00
2019-05-17T11:45:48.384Z,15668.00
2019-05-17T11:46:48.374Z,14920.00
2019-05-17T11:47:48.360Z,14636.00
2019-05-17T11:48:48.339Z,15904.00
2019-05-17T11:49:48.347Z,17152.00
2019-05-17T11:50:48.307Z,17376.00
2019-05-17T11:51:48.292Z,16800.00
2019-05-17T11:52:48.278Z,16832.00
2019-05-17T11:53:48.261Z,16928.00
2019-05-17T11:54:48.259Z,15872.00
2019-05-17T11:55:48.228Z,16800.00
2019-05-17T11:56:48.212Z,16496.00
2019-05-17T11:57:48.199Z,17600.00
2019-05-17T11:58:48.182Z,16620.00
2019-05-17T11:59:48.181Z,16960.00
2019-05-17T12:00:48.149Z,17152.00
2019-05-17T12:01:48.140Z,17024.00
2019-05-17T12:02:48.121Z,17248.00
2019-05-17T12:03:48.108Z,17760.00
2019-05-17T12:04:48.106Z,18144.00
2019-05-17T12:05:48.072Z,19264.00
2019-05-17T12:06:48.062Z,20512.00
2019-05-17T12:07:48.045Z,20416.00
2019-05-17T12:08:48.025Z,20032.00
2019-05-17T12:09:48.017Z,19936.00
2019-05-17T12:10:48.119Z,19968.00
2019-05-17T12:11:47.982Z,19872.00
2019-05-17T12:12:47.964Z,20384.00
2019-05-17T12:13:47.953Z,22592.00
2019-05-17T12:14:47.942Z,26080.00
2019-05-17T12:15:47.935Z,29632.00
2019-05-17T12:16:47.903Z,32768.00
2019-05-17T12:17:47.889Z,33728.00
2019-05-17T12:18:47.877Z,34016.00
2019-05-17T12:19:47.862Z,34048.00
2019-05-17T12:20:47.868Z,33856.00
2019-05-17T12:21:47.829Z,34016.00
2019-05-17T12:22:47.822Z,34144.00
2019-05-17T12:23:47.801Z,33152.00
2019-05-17T12:24:47.787Z,33504.00
2019-05-17T12:25:47.889Z,33216.00
2019-05-17T12:26:47.771Z,31648.00
2019-05-17T12:27:47.743Z,34464.00
2019-05-17T12:28:47.733Z,35008.00
2019-05-17T12:29:47.720Z,38528.00
2019-05-17T12:30:47.702Z,40032.00
2019-05-17T12:31:47.700Z,39456.00
2019-05-17T12:32:47.675Z,38400.00
2019-05-17T12:33:47.658Z,36032.00
2019-05-17T12:34:47.649Z,32320.00
2019-05-17T12:35:47.633Z,34688.00
2019-05-17T12:36:47.654Z,38944.00
2019-05-17T12:37:47.610Z,39104.00
2019-05-17T12:38:47.593Z,37984.00
2019-05-17T12:39:47.583Z,38144.00
2019-05-17T12:40:47.565Z,37248.00
2019-05-17T12:41:47.595Z,35008.00
2019-05-17T12:42:47.551Z,35520.00
2019-05-17T12:43:47.552Z,38208.00
2019-05-17T12:44:47.515Z,39936.00
2019-05-17T12:45:59.463Z,41984.00
2019-05-17T12:46:47.487Z,39776.00
2019-05-17T12:47:47.493Z,38144.00
2019-05-17T12:48:47.466Z,31424.00
2019-05-17T12:49:47.452Z,27232.00
2019-05-17T12:50:47.442Z,23712.00
2019-05-17T12:51:47.433Z,23488.00
2019-05-17T12:52:47.432Z,27488.00
2019-05-17T12:53:47.407Z,28960.00
2019-05-17T12:54:47.398Z,26016.00
2019-05-17T12:55:47.383Z,26784.00
2019-05-17T12:56:47.371Z,28320.00
2019-05-17T12:57:47.381Z,31136.00
2019-05-17T12:58:47.346Z,32160.00
2019-05-17T12:59:47.331Z,26816.00
2019-05-17T13:00:47.319Z,27264.00
2019-05-17T13:01:47.306Z,28512.00
2019-05-17T13:02:47.310Z,29056.00
2019-05-17T13:03:47.282Z,25888.00
2019-05-17T13:04:47.269Z,26464.00
2019-05-17T13:05:47.259Z,25632.00
2019-05-17T13:06:47.244Z,25600.00
2019-05-17T13:07:47.256Z,25088.00
2019-05-17T13:08:47.218Z,29536.00
2019-05-17T13:09:47.218Z,31200.00
2019-05-17T13:10:47.193Z,32256.00
2019-05-17T13:11:47.184Z,32480.00
2019-05-17T13:12:47.181Z,36096.00
2019-05-17T13:13:47.159Z,51264.00
2019-05-17T13:14:47.149Z,48000.00
2019-05-17T13:15:47.131Z,45088.00
2019-05-17T13:16:47.118Z,73408.00
2019-05-17T13:17:47.122Z,76768.00
2019-05-17T13:18:47.095Z,41120.00
2019-05-17T13:19:47.080Z,40256.00
2019-05-17T13:20:47.071Z,38048.00
2019-05-17T13:21:47.061Z,31808.00
2019-05-17T13:22:47.071Z,31936.00
2019-05-17T13:23:47.033Z,32384.00
2019-05-17T13:24:47.027Z,34176.00
2019-05-17T13:25:47.014Z,33984.00
2019-05-17T13:26:47.003Z,30784.00
2019-05-17T13:27:46.994Z,28544.00
2019-05-17T13:28:46.989Z,26976.00
2019-05-17T13:29:46.973Z,26656.00
2019-05-17T13:30:46.956Z,26976.00
2019-05-17T13:31:46.946Z,27648.00
2019-05-17T13:32:46.932Z,29248.00
2019-05-17T13:33:46.931Z,31200.00
2019-05-17T13:34:46.906Z,31392.00
2019-05-17T13:35:46.901Z,45152.00
2019-05-17T13:36:46.883Z,30496.00
2019-05-17T13:37:46.869Z,32416.00
2019-05-17T13:38:46.874Z,33856.00
2019-05-17T13:39:46.850Z,54976.00
2019-05-17T13:40:46.837Z,53472.00
2019-05-17T13:41:46.822Z,60480.00
2019-05-17T13:42:46.819Z,46048.00
2019-05-17T13:43:46.821Z,60704.00
2019-05-17T13:44:46.786Z,70176.00
2019-05-17T13:45:46.783Z,95552.00
2019-05-17T13:46:46.762Z,84256.00
2019-05-17T13:47:46.751Z,79712.00
2019-05-17T13:48:46.738Z,45696.00
2019-05-17T13:49:46.745Z,73408.00
2019-05-17T13:50:46.715Z,45280.00
2019-05-17T13:51:46.703Z,44064.00
2019-05-17T13:52:46.691Z,66464.00
2019-05-17T13:53:46.682Z,83296.00
2019-05-17T13:54:46.699Z,141856.00
2019-05-17T13:55:46.661Z,132736.00
2019-05-17T13:56:46.646Z,53280.00
2019-05-17T13:57:46.636Z,75328.00
2019-05-17T13:58:46.629Z,97312.00
2019-05-17T13:59:46.629Z,52672.00
2019-05-17T14:00:46.606Z,42304.00
2019-05-17T14:01:46.593Z,38272.00
2019-05-17T14:02:46.585Z,33536.00
2019-05-17T14:03:46.578Z,31072.00
2019-05-17T14:04:46.575Z,32704.00
2019-05-17T14:05:46.552Z,38784.00
2019-05-17T14:06:46.540Z,118624.00
2019-05-17T14:07:46.531Z,88768.00
2019-05-17T14:08:46.519Z,62848.00
2019-05-17T14:09:46.534Z,28704.00
2019-05-17T14:10:46.496Z,64672.00
2019-05-17T14:11:46.484Z,56480.00
2019-05-17T14:12:46.473Z,63552.00
2019-05-17T14:13:46.465Z,47232.00
2019-05-17T14:14:46.472Z,23808.00
2019-05-17T14:15:46.442Z,19168.00
2019-05-17T14:16:46.430Z,22656.00
2019-05-17T14:17:46.425Z,27680.00
2019-05-17T14:18:46.408Z,36544.00
2019-05-17T14:19:46.421Z,70112.00
2019-05-17T14:20:46.437Z,45856.00
2019-05-17T14:21:46.380Z,33472.00
2019-05-17T14:22:46.406Z,71520.00
2019-05-17T14:23:46.353Z,38816.00
2019-05-17T14:24:46.346Z,37728.00
2019-05-17T14:25:46.355Z,58912.00
2019-05-17T14:26:46.320Z,39904.00
2019-05-17T14:27:46.310Z,90112.00
2019-05-17T14:28:46.297Z,32608.00
2019-05-17T14:29:46.398Z,28480.00
2019-05-17T14:30:46.290Z,26976.00
2019-05-17T14:31:46.267Z,28096.00
2019-05-17T14:32:46.306Z,23488.00
2019-05-17T14:33:46.246Z,20608.00
2019-05-17T14:34:46.234Z,19136.00
2019-05-17T14:35:46.544Z,17472.00
2019-05-17T14:36:46.221Z,17088.00
2019-05-17T14:37:46.202Z,16800.00
2019-05-17T14:38:58.517Z,16132.00
2019-05-17T14:39:46.180Z,15668.00
2019-05-17T14:41:05.671Z,16224.00
2019-05-17T14:41:46.172Z,16384.00
2019-05-17T14:42:46.144Z,17952.00
2019-05-17T14:43:46.134Z,19104.00
2019-05-17T14:44:46.126Z,16928.00
2019-05-17T14:45:46.110Z,16268.00
2019-05-17T14:46:46.117Z,15416.00
2019-05-17T14:47:46.088Z,14876.00
2019-05-17T14:48:46.082Z,14884.00
2019-05-17T14:49:46.062Z,15980.00
2019-05-17T14:50:46.057Z,17312.00
2019-05-17T14:51:46.042Z,19232.00
2019-05-17T14:52:46.040Z,24736.00
2019-05-17T14:53:46.017Z,25472.00
2019-05-17T14:54:46.004Z,25056.00
2019-05-17T14:55:45.994Z,31520.00
2019-05-17T14:56:45.976Z,28960.00
2019-05-17T14:57:45.980Z,31648.00
2019-05-17T14:58:45.953Z,34592.00
2019-05-17T14:59:45.950Z,36448.00
2019-05-17T15:00:45.926Z,41280.00
2019-05-17T15:01:45.917Z,93024.00
2019-05-17T15:02:45.917Z,59872.00
2019-05-17T15:03:45.934Z,72032.00
2019-05-17T15:04:45.883Z,59456.00
2019-05-17T15:05:45.866Z,63616.00
2019-05-17T15:06:45.856Z,90304.00
2019-05-17T15:07:45.859Z,78176.00
2019-05-17T15:08:46.447Z,66336.00
2019-05-17T15:09:45.832Z,87232.00
2019-05-17T15:10:45.823Z,79968.00
2019-05-17T15:11:45.824Z,83008.00
2019-05-17T15:12:45.803Z,74112.00
2019-05-17T15:13:45.801Z,83392.00
2019-05-17T15:14:45.813Z,89024.00
2019-05-17T15:15:45.767Z,58144.00
2019-05-17T15:16:45.800Z,41920.00
2019-05-17T15:17:45.765Z,42976.00
2019-05-17T15:18:45.745Z,65952.00
2019-05-17T15:19:45.736Z,71328.00
2019-05-17T15:20:45.728Z,85536.00
2019-05-17T15:21:47.436Z,90560.00
2019-05-17T15:22:47.422Z,46368.00
2019-05-17T15:23:45.727Z,87904.00
2019-05-17T15:24:45.692Z,90432.00
2019-05-17T15:25:45.695Z,88064.00
2019-05-17T15:27:03.507Z,82016.00
2019-05-17T15:27:45.708Z,78752.00
2019-05-17T15:28:45.664Z,66976.00
2019-05-17T15:29:45.716Z,39232.00
2019-05-17T15:30:45.650Z,80160.00
2019-05-17T15:31:45.644Z,73632.00
2019-05-17T15:32:45.661Z,84128.00
2019-05-17T15:33:45.633Z,86464.00
2019-05-17T15:34:45.628Z,87808.00
2019-05-17T15:35:45.621Z,88352.00
2019-05-17T15:36:45.641Z,74656.00
2019-05-17T15:37:45.619Z,32864.00
2019-05-17T15:38:45.598Z,83424.00
2019-05-17T15:39:45.601Z,80576.00
2019-05-17T15:40:45.586Z,80480.00
2019-05-17T15:41:45.589Z,76928.00
2019-05-17T15:42:45.594Z,71008.00
2019-05-17T15:43:45.574Z,27488.00
2019-05-17T15:44:45.566Z,25664.00
2019-05-17T15:45:45.559Z,22304.00
2019-05-17T15:46:45.561Z,21472.00
2019-05-17T15:47:45.548Z,22080.00
2019-05-17T15:48:45.559Z,23296.00
2019-05-17T15:49:45.532Z,21472.00
2019-05-17T15:50:45.694Z,20160.00
2019-05-17T15:51:45.520Z,19424.00
2019-05-17T15:52:45.518Z,18912.00
2019-05-17T15:53:45.630Z,19488.00
2019-05-17T15:54:48.488Z,19168.00
2019-05-17T15:55:45.490Z,18528.00
2019-05-17T15:56:45.529Z,18368.00
2019-05-17T15:57:45.527Z,20256.00
2019-05-17T15:58:45.643Z,53440.00
2019-05-17T15:59:45.540Z,22144.00
2019-05-17T16:00:45.447Z,19744.00
2019-05-17T16:01:45.481Z,16568.00
2019-05-17T16:02:45.424Z,15768.00
2019-05-17T16:03:45.537Z,15928.00
2019-05-17T16:04:45.419Z,17632.00
2019-05-17T16:05:45.438Z,18048.00
2019-05-17T16:06:45.384Z,19680.00
2019-05-17T16:07:45.373Z,31168.00
2019-05-17T16:08:45.369Z,51584.00
2019-05-17T16:09:45.366Z,50336.00
2019-05-17T16:10:45.340Z,13832.00
2019-05-17T16:11:45.333Z,14040.00
2019-05-17T16:13:01.083Z,48672.00
2019-05-17T16:13:45.306Z,12440.00
2019-05-17T16:14:45.333Z,11272.00
2019-05-17T16:15:45.306Z,12152.00
2019-05-17T16:16:45.293Z,23008.00
2019-05-17T16:17:45.285Z,49664.00
2019-05-17T16:18:45.262Z,51456.00
2019-05-17T16:19:45.266Z,50656.00
2019-05-17T16:20:45.232Z,48736.00
2019-05-17T16:21:45.231Z,48864.00
2019-05-17T16:22:45.214Z,48160.00
2019-05-17T16:23:45.225Z,47488.00
2019-05-17T16:24:45.220Z,48544.00
2019-05-17T16:25:45.200Z,49632.00
2019-05-17T16:26:45.176Z,38528.00
2019-05-17T16:27:45.165Z,18880.00
2019-05-17T16:28:45.159Z,16640.00
2019-05-17T16:29:45.147Z,14764.00
2019-05-17T16:30:45.167Z,13096.00
2019-05-17T16:31:45.137Z,12148.00
2019-05-17T16:32:45.138Z,12032.00
2019-05-17T16:33:45.115Z,12404.00
2019-05-17T16:34:45.106Z,13172.00
2019-05-17T16:35:45.110Z,13996.00
2019-05-17T16:36:45.086Z,15180.00
2019-05-17T16:37:45.082Z,16080.00
2019-05-17T16:38:45.062Z,19552.00
2019-05-17T16:39:45.055Z,19584.00
2019-05-17T16:40:45.067Z,21984.00
2019-05-17T16:41:45.029Z,17632.00
2019-05-17T16:42:45.021Z,18176.00
2019-05-17T16:43:45.010Z,17728.00
2019-05-17T16:44:45.006Z,15428.00
2019-05-17T16:45:45.001Z,15520.00
2019-05-17T16:46:44.975Z,15684.00
2019-05-17T16:47:44.964Z,15596.00
2019-05-17T16:48:44.969Z,14988.00
2019-05-17T16:49:44.942Z,13852.00
2019-05-17T16:50:44.947Z,13232.00
2019-05-17T16:51:44.918Z,13160.00
2019-05-17T16:52:44.904Z,12992.00
2019-05-17T16:53:44.901Z,12620.00
2019-05-17T16:54:44.878Z,12076.00
2019-05-17T16:55:44.884Z,14588.00
2019-05-17T16:56:44.857Z,35264.00
2019-05-17T16:57:44.850Z,35456.00
2019-05-17T16:58:44.829Z,33184.00
2019-05-17T16:59:44.816Z,27392.00
2019-05-17T17:00:44.829Z,15612.00
2019-05-17T17:01:44.796Z,19104.00
2019-05-17T17:02:44.786Z,18464.00
2019-05-17T17:03:44.955Z,19168.00
2019-05-17T17:04:44.758Z,17664.00
2019-05-17T17:05:44.762Z,24160.00
2019-05-17T17:06:44.739Z,19200.00
2019-05-17T17:07:44.732Z,18304.00
2019-05-17T17:08:44.719Z,13272.00
2019-05-17T17:09:44.705Z,12592.00
2019-05-17T17:10:44.709Z,11832.00
2019-05-17T17:11:45.774Z,10508.00
2019-05-17T17:12:44.671Z,9820.00
2019-05-17T17:13:44.670Z,9488.00
2019-05-17T17:14:44.648Z,9292.00
2019-05-17T17:15:44.674Z,9136.00
2019-05-17T17:16:44.645Z,8988.00
2019-05-17T17:17:44.612Z,8940.00
2019-05-17T17:18:44.611Z,8932.00
2019-05-17T17:19:44.587Z,8664.00
2019-05-17T17:20:44.573Z,8380.00
2019-05-17T17:21:44.575Z,8320.00
2019-05-17T17:22:44.554Z,8408.00
2019-05-17T17:23:44.536Z,8416.00
2019-05-17T17:24:44.522Z,8268.00
2019-05-17T17:25:44.516Z,7988.00
2019-05-17T17:26:44.511Z,7648.00
2019-05-17T17:27:44.483Z,7352.00
2019-05-17T17:28:44.471Z,7180.00
2019-05-17T17:29:44.456Z,6820.00
2019-05-17T17:30:44.447Z,6496.00
2019-05-17T17:31:44.451Z,6200.00
2019-05-17T17:32:44.422Z,5868.00
2019-05-17T17:33:44.402Z,5628.00
2019-05-17T17:34:44.391Z,5392.00
2019-05-17T17:35:44.394Z,5092.00
2019-05-17T17:36:44.360Z,4836.00
2019-05-17T17:37:44.366Z,4588.00
2019-05-17T17:38:44.335Z,4336.00
2019-05-17T17:39:44.327Z,4152.00
2019-05-17T17:40:44.311Z,4068.00
2019-05-17T17:41:44.292Z,4060.00
2019-05-17T17:42:44.293Z,4140.00
2019-05-17T17:43:57.540Z,4204.00
2019-05-17T17:44:44.250Z,4220.00
2019-05-17T17:45:44.240Z,4220.00
2019-05-17T17:46:44.224Z,4216.00
2019-05-17T17:47:44.232Z,4216.00
2019-05-17T17:48:45.928Z,4184.00
2019-05-17T17:49:44.185Z,4164.00
2019-05-17T17:50:44.209Z,4164.00
2019-05-17T17:51:44.180Z,4124.00
2019-05-17T17:52:44.141Z,4064.00
2019-05-17T17:53:44.139Z,3992.00
2019-05-17T17:54:44.109Z,3932.00
2019-05-17T17:55:44.094Z,3800.00
2019-05-17T17:56:44.078Z,3600.00
2019-05-17T17:57:44.064Z,3388.00
2019-05-17T17:58:44.075Z,3168.00
2019-05-17T17:59:44.043Z,3004.00
2019-05-17T18:00:44.023Z,2912.00
2019-05-17T18:01:44.005Z,2872.00
2019-05-17T18:02:43.989Z,2820.00
2019-05-17T18:03:43.991Z,2732.00
2019-05-17T18:04:43.965Z,2640.00
2019-05-17T18:05:43.948Z,2536.00
2019-05-17T18:06:43.926Z,2420.00
2019-05-17T18:07:43.922Z,2316.00
2019-05-17T18:08:43.945Z,2236.00
2019-05-17T18:09:43.891Z,2200.00
2019-05-17T18:10:46.548Z,2232.00
2019-05-17T18:11:43.858Z,2312.00
2019-05-17T18:12:43.865Z,2412.00
2019-05-17T18:13:43.857Z,2508.00
2019-05-17T18:14:43.807Z,2520.00
2019-05-17T18:15:43.792Z,2472.00
2019-05-17T18:16:43.794Z,2388.00
2019-05-17T18:17:43.760Z,2304.00
2019-05-17T18:18:43.760Z,2220.00
2019-05-17T18:19:43.730Z,2144.00
2019-05-17T18:20:43.720Z,2064.00
2019-05-17T18:21:43.699Z,1992.00
2019-05-17T18:22:43.771Z,1892.00
2019-05-17T18:23:43.686Z,1780.00
2019-05-17T18:24:43.676Z,1660.00
2019-05-17T18:25:43.654Z,1548.00
2019-05-17T18:26:43.641Z,1464.00
2019-05-17T18:27:43.603Z,1412.00
2019-05-17T18:28:43.615Z,1396.00
2019-05-17T18:29:43.599Z,1380.00
2019-05-17T18:30:43.560Z,1352.00
2019-05-17T18:31:43.543Z,1300.00
2019-05-17T18:32:43.530Z,1268.00
2019-05-17T18:33:43.532Z,1248.00
2019-05-17T18:34:43.510Z,1236.00
2019-05-17T18:35:43.509Z,1224.00
2019-05-17T18:36:43.485Z,1216.00
2019-05-17T18:37:43.464Z,1204.00
2019-05-17T18:38:43.471Z,1188.00
2019-05-17T18:39:43.420Z,1172.00
2019-05-17T18:40:43.402Z,1148.00
2019-05-17T18:41:43.394Z,1128.00
2019-05-17T18:42:43.381Z,1104.00
2019-05-17T18:43:43.385Z,1084.00
2019-05-17T18:44:43.365Z,1060.00
2019-05-17T18:45:43.357Z,1024.00
2019-05-17T18:46:43.343Z,976.00
2019-05-17T18:47:43.324Z,920.00
2019-05-17T18:48:43.339Z,848.00
2019-05-17T18:49:43.277Z,780.00
2019-05-17T18:50:43.266Z,716.00
2019-05-17T18:51:43.238Z,664.00
2019-05-17T18:52:43.256Z,616.00
2019-05-17T18:53:43.214Z,580.00
2019-05-17T18:54:43.181Z,548.00
2019-05-17T18:55:43.169Z,524.00
2019-05-17T18:56:43.155Z,516.00
2019-05-17T18:57:43.141Z,504.00
2019-05-17T18:58:43.118Z,484.00
2019-05-17T18:59:43.122Z,468.00
2019-05-17T19:00:43.084Z,444.00
2019-05-17T19:01:43.072Z,424.00
2019-05-17T19:02:43.050Z,400.00
2019-05-17T19:03:43.040Z,376.00
2019-05-17T19:04:43.056Z,356.00
2019-05-17T19:05:45.278Z,336.00
2019-05-17T19:06:42.992Z,316.00
2019-05-17T19:07:42.971Z,296.00
2019-05-17T19:08:42.956Z,280.00
2019-05-17T19:09:42.954Z,264.00
2019-05-17T19:10:42.928Z,248.00
2019-05-17T19:11:42.929Z,232.00
2019-05-17T19:12:42.886Z,216.00
2019-05-17T19:13:42.870Z,200.00
2019-05-17T19:14:43.469Z,188.00
2019-05-17T19:15:42.851Z,172.00
2019-05-17T19:16:42.823Z,164.00
2019-05-17T19:17:42.803Z,152.00
2019-05-17T19:18:42.790Z,136.00
2019-05-17T19:19:42.779Z,128.00
2019-05-17T19:20:42.779Z,116.00
2019-05-17T19:21:42.751Z,108.00
2019-05-17T19:22:42.724Z,96.00
2019-05-17T19:23:42.707Z,84.00
2019-05-17T19:24:42.695Z,76.00
2019-05-17T19:25:42.701Z,64.00
2019-05-17T19:26:42.656Z,60.00
2019-05-17T19:27:42.641Z,52.00
2019-05-17T19:28:42.624Z,44.00
2019-05-17T19:29:43.357Z,36.00
2019-05-17T19:30:42.626Z,32.00
2019-05-17T19:31:42.575Z,32.00
2019-05-17T19:32:42.558Z,24.00